createdAt,value
2018-11-29T00:00:46.151Z,17.02
2018-11-29T00:03:22.313Z,16.40
2018-11-29T00:06:15.749Z,17.05
2018-11-29T00:08:51.841Z,15.50
2018-11-29T00:11:28.212Z,15.50
2018-11-29T00:14:04.510Z,17.23
2018-11-29T00:16:40.674Z,13.90
2018-11-29T00:19:18.294Z,16.15
2018-11-29T00:21:57.175Z,14.47
2018-11-29T00:24:33.705Z,17.00
2018-11-29T00:27:09.808Z,16.97
2018-11-29T00:29:46.066Z,15.68
2018-11-29T00:32:22.164Z,18.87
2018-11-29T00:34:58.359Z,17.45
2018-11-29T00:37:34.665Z,17.48
2018-11-29T00:40:27.511Z,17.10
2018-11-29T00:43:03.628Z,18.07
2018-11-29T00:45:39.719Z,17.50
2018-11-29T00:48:15.854Z,17.45
2018-11-29T00:50:52.056Z,17.55
2018-11-29T00:53:28.154Z,18.20
2018-11-29T00:56:04.417Z,18.30
2018-11-29T00:58:40.617Z,17.98
2018-11-29T01:01:16.904Z,15.75
2018-11-29T01:03:53.141Z,17.23
2018-11-29T01:06:29.294Z,15.78
2018-11-29T01:09:07.959Z,17.95
2018-11-29T01:11:44.266Z,15.50
2018-11-29T01:14:20.651Z,14.40
2018-11-29T01:16:56.737Z,16.93
2018-11-29T01:19:33.049Z,16.85
2018-11-29T01:22:09.221Z,17.48
2018-11-29T01:24:45.431Z,16.90
2018-11-29T01:27:21.755Z,20.37
2018-11-29T01:29:57.792Z,19.60
2018-11-29T01:32:33.731Z,18.12
2018-11-29T01:35:14.056Z,19.50
2018-11-29T01:37:50.320Z,18.30
2018-11-29T01:40:26.536Z,17.35
2018-11-29T01:43:02.498Z,15.85
2018-11-29T01:45:38.757Z,17.00
2018-11-29T01:48:14.822Z,15.78
2018-11-29T01:50:50.987Z,17.98
2018-11-29T01:53:27.227Z,17.48
2018-11-29T01:56:03.287Z,18.10
2018-11-29T01:58:39.690Z,20.95
2018-11-29T02:01:15.635Z,16.90
2018-11-29T02:03:51.799Z,18.95
2018-11-29T02:06:28.961Z,18.10
2018-11-29T02:09:07.046Z,17.73
2018-11-29T02:11:43.529Z,18.48
2018-11-29T02:14:19.726Z,19.02
2018-11-29T02:16:55.677Z,19.65
2018-11-29T02:19:31.795Z,18.37
2018-11-29T02:22:08.453Z,19.77
2018-11-29T02:24:45.091Z,18.65
2018-11-29T02:27:21.335Z,17.62
2018-11-29T02:29:57.587Z,17.70
2018-11-29T02:32:33.595Z,17.37
2018-11-29T02:35:09.820Z,17.90
2018-11-29T02:37:45.929Z,19.30
2018-11-29T02:40:22.007Z,17.57
2018-11-29T02:42:58.223Z,21.07
2018-11-29T02:45:34.273Z,19.05
2018-11-29T02:48:10.256Z,18.35
2018-11-29T02:50:46.739Z,18.02
2018-11-29T02:53:22.899Z,22.13
2018-11-29T02:55:59.005Z,19.48
2018-11-29T02:58:35.205Z,20.68
2018-11-29T03:01:11.354Z,20.65
2018-11-29T03:03:47.394Z,21.60
2018-11-29T03:06:23.463Z,18.87
2018-11-29T03:08:59.783Z,21.15
2018-11-29T03:11:35.895Z,21.50
2018-11-29T03:14:12.096Z,20.55
2018-11-29T03:16:47.965Z,22.62
2018-11-29T03:19:24.072Z,19.37
2018-11-29T03:22:00.050Z,23.73
2018-11-29T03:24:36.173Z,21.25
2018-11-29T03:27:12.203Z,21.12
2018-11-29T03:29:48.218Z,22.00
2018-11-29T03:32:24.207Z,23.18
2018-11-29T03:35:00.438Z,20.15
2018-11-29T03:37:36.409Z,22.20
2018-11-29T03:40:15.535Z,20.97
2018-11-29T03:42:51.720Z,21.12
2018-11-29T03:45:27.852Z,21.25
2018-11-29T03:48:03.872Z,20.65
2018-11-29T03:50:40.092Z,22.52
2018-11-29T03:53:16.285Z,23.87
2018-11-29T03:55:52.556Z,21.90
2018-11-29T03:58:28.464Z,24.45
2018-11-29T04:01:04.814Z,22.55
2018-11-29T04:03:40.799Z,19.15
2018-11-29T04:06:16.876Z,22.87
2018-11-29T04:08:53.458Z,24.60
2018-11-29T04:11:29.836Z,21.93
2018-11-29T04:14:06.282Z,21.82
2018-11-29T04:16:42.483Z,21.23
2018-11-29T04:19:18.621Z,20.40
2018-11-29T04:21:54.819Z,23.60
2018-11-29T04:24:30.975Z,24.90
2018-11-29T04:27:07.125Z,21.15
2018-11-29T04:29:46.658Z,22.52
2018-11-29T04:32:22.725Z,22.45
2018-11-29T04:34:58.629Z,22.77
2018-11-29T04:37:34.888Z,22.22
2018-11-29T04:40:13.275Z,24.00
2018-11-29T04:42:49.375Z,23.98
2018-11-29T04:45:25.416Z,22.82
2018-11-29T04:48:01.504Z,24.70
2018-11-29T04:50:37.473Z,20.62
2018-11-29T04:53:13.520Z,24.72
2018-11-29T04:55:49.720Z,21.25
2018-11-29T04:58:25.756Z,22.85
2018-11-29T05:01:02.025Z,21.87
2018-11-29T05:03:37.876Z,22.98
2018-11-29T05:06:13.976Z,25.55
2018-11-29T05:08:49.872Z,23.50
2018-11-29T05:11:26.072Z,23.42
2018-11-29T05:14:02.394Z,25.02
2018-11-29T05:16:38.635Z,23.87
2018-11-29T05:19:14.804Z,26.00
2018-11-29T05:21:51.744Z,25.45
2018-11-29T05:24:27.975Z,25.25
2018-11-29T05:27:04.013Z,24.37
2018-11-29T05:29:40.080Z,23.25
2018-11-29T05:32:16.016Z,26.68
2018-11-29T05:34:52.231Z,24.80
2018-11-29T05:37:28.143Z,25.82
2018-11-29T05:40:04.381Z,28.38
2018-11-29T05:42:40.418Z,24.15
2018-11-29T05:45:16.504Z,25.05
2018-11-29T05:47:52.812Z,25.60
2018-11-29T05:50:28.875Z,24.77
2018-11-29T05:53:05.036Z,27.80
2018-11-29T05:55:41.466Z,25.48
2018-11-29T05:58:17.812Z,24.55
2018-11-29T06:00:54.009Z,25.72
2018-11-29T06:03:30.084Z,30.00
2018-11-29T06:06:06.802Z,26.50
2018-11-29T06:08:42.704Z,27.45
2018-11-29T06:11:18.936Z,28.73
2018-11-29T06:13:55.098Z,24.85
2018-11-29T06:16:31.133Z,26.05
2018-11-29T06:19:08.679Z,27.13
2018-11-29T06:21:44.867Z,24.63
2018-11-29T06:24:20.894Z,24.65
2018-11-29T06:26:57.017Z,24.67
2018-11-29T06:29:33.062Z,27.07
2018-11-29T06:32:09.218Z,26.85
2018-11-29T06:34:45.247Z,27.58
2018-11-29T06:37:21.485Z,24.18
2018-11-29T06:39:57.395Z,25.08
2018-11-29T06:42:33.349Z,25.72
2018-11-29T06:45:25.012Z,26.97
2018-11-29T06:48:01.061Z,27.93
2018-11-29T06:50:37.400Z,25.35
2018-11-29T06:53:18.557Z,26.65
2018-11-29T06:55:54.652Z,22.95
2018-11-29T06:58:30.428Z,26.23
2018-11-29T07:01:06.507Z,26.35
2018-11-29T07:03:43.360Z,26.15
2018-11-29T07:06:18.646Z,25.30
2018-11-29T07:08:54.769Z,27.93
2018-11-29T07:11:30.837Z,26.07
2018-11-29T07:14:07.016Z,25.85
2018-11-29T07:16:43.086Z,26.40
2018-11-29T07:19:19.395Z,24.43
2018-11-29T07:21:55.900Z,22.20
2018-11-29T07:24:31.963Z,23.83
2018-11-29T07:27:07.976Z,22.32
2018-11-29T07:29:44.155Z,22.25
2018-11-29T07:32:24.393Z,23.22
2018-11-29T07:35:00.572Z,24.43
2018-11-29T07:37:36.275Z,23.80
2018-11-29T07:40:18.684Z,21.12
2018-11-29T07:42:55.557Z,21.12
2018-11-29T07:45:31.553Z,22.77
2018-11-29T07:48:07.572Z,25.52
2018-11-29T07:50:43.702Z,22.82
2018-11-29T07:53:19.733Z,22.02
2018-11-29T07:55:55.899Z,22.65
2018-11-29T07:58:32.113Z,21.55
2018-11-29T08:01:08.339Z,23.15
2018-11-29T08:03:44.460Z,22.98
2018-11-29T08:06:20.645Z,19.77
2018-11-29T08:08:56.745Z,22.85
2018-11-29T08:11:32.707Z,21.60
2018-11-29T08:14:09.022Z,22.70
2018-11-29T08:16:45.072Z,20.10
2018-11-29T08:19:21.137Z,20.90
2018-11-29T08:21:57.034Z,21.82
2018-11-29T08:24:33.030Z,22.17
2018-11-29T08:27:09.155Z,23.80
2018-11-29T08:29:45.176Z,20.32
2018-11-29T08:32:21.813Z,20.75
2018-11-29T08:34:57.954Z,22.70
2018-11-29T08:37:34.046Z,21.73
2018-11-29T08:40:12.422Z,23.60
2018-11-29T08:42:48.537Z,23.02
2018-11-29T08:45:24.411Z,23.45
2018-11-29T08:48:00.474Z,21.70
2018-11-29T08:50:36.596Z,23.62
2018-11-29T08:53:12.752Z,23.45
2018-11-29T08:55:48.621Z,25.10
2018-11-29T08:58:24.902Z,22.70
2018-11-29T09:01:00.922Z,24.52
2018-11-29T09:03:37.323Z,25.00
2018-11-29T09:06:13.267Z,25.43
2018-11-29T09:08:49.475Z,24.67
2018-11-29T09:11:25.627Z,24.12
2018-11-29T09:14:01.735Z,24.55
2018-11-29T09:16:37.777Z,24.52
2018-11-29T09:19:13.898Z,24.90
2018-11-29T09:21:50.012Z,24.07
2018-11-29T09:24:26.073Z,26.73
2018-11-29T09:27:02.048Z,22.02
2018-11-29T09:29:38.244Z,22.80
2018-11-29T09:32:14.309Z,23.55
2018-11-29T09:34:50.284Z,22.65
2018-11-29T09:37:26.318Z,23.20
2018-11-29T09:40:02.380Z,21.87
2018-11-29T09:42:38.701Z,22.45
2018-11-29T09:45:16.758Z,22.48
2018-11-29T09:47:54.405Z,22.27
2018-11-29T09:50:30.421Z,23.22
2018-11-29T09:53:06.682Z,21.70
2018-11-29T09:55:42.576Z,22.85
2018-11-29T09:58:18.525Z,22.37
2018-11-29T10:00:54.482Z,23.98
2018-11-29T10:03:30.384Z,24.12
2018-11-29T10:06:06.885Z,22.80
2018-11-29T10:08:42.838Z,22.75
2018-11-29T10:11:18.689Z,21.82
2018-11-29T10:13:54.793Z,21.00
2018-11-29T10:16:30.991Z,23.42
2018-11-29T10:19:07.042Z,21.70
2018-11-29T10:21:43.158Z,21.20
2018-11-29T10:24:19.074Z,20.52
2018-11-29T10:26:55.345Z,20.50
2018-11-29T10:29:32.220Z,21.30
2018-11-29T10:32:07.303Z,22.15
2018-11-29T10:34:43.504Z,20.15
2018-11-29T10:37:19.431Z,22.42
2018-11-29T10:39:55.188Z,22.60
2018-11-29T10:42:31.406Z,22.73
2018-11-29T10:45:11.187Z,21.45
2018-11-29T10:47:52.434Z,20.95
2018-11-29T10:50:25.737Z,21.05
2018-11-29T10:53:01.681Z,21.75
2018-11-29T10:55:37.888Z,20.35
2018-11-29T10:58:13.727Z,22.40
2018-11-29T11:00:54.746Z,20.77
2018-11-29T11:03:30.748Z,21.82
2018-11-29T11:06:07.144Z,24.80
2018-11-29T11:08:42.932Z,21.62
2018-11-29T11:11:19.142Z,22.95
2018-11-29T11:13:54.993Z,23.05
2018-11-29T11:16:31.204Z,22.55
2018-11-29T11:19:07.277Z,21.70
2018-11-29T11:21:43.106Z,18.00
2018-11-29T11:24:18.934Z,20.55
2018-11-29T11:26:54.982Z,22.67
2018-11-29T11:29:31.030Z,22.10
2018-11-29T11:32:07.444Z,22.15
2018-11-29T11:34:43.346Z,22.62
2018-11-29T11:37:19.233Z,20.95
2018-11-29T11:39:55.214Z,21.02
2018-11-29T11:42:31.167Z,22.13
2018-11-29T11:45:16.534Z,19.98
2018-11-29T11:47:52.695Z,19.12
2018-11-29T11:50:28.801Z,19.90
2018-11-29T11:53:05.025Z,21.62
2018-11-29T11:55:40.999Z,20.80
2018-11-29T11:58:16.695Z,21.40
2018-11-29T12:00:52.655Z,19.87
2018-11-29T12:03:28.743Z,20.90
2018-11-29T12:06:04.673Z,19.82
2018-11-29T12:08:40.786Z,19.60
2018-11-29T12:11:16.732Z,21.50
2018-11-29T12:13:52.545Z,17.52
2018-11-29T12:16:28.713Z,19.90
2018-11-29T12:19:04.814Z,19.57
2018-11-29T12:21:45.509Z,21.07
2018-11-29T12:24:21.943Z,18.67
2018-11-29T12:26:58.118Z,20.23
2018-11-29T12:29:35.568Z,21.20
2018-11-29T12:32:12.317Z,19.20
2018-11-29T12:34:48.694Z,20.05
2018-11-29T12:37:24.859Z,19.75
2018-11-29T12:40:01.564Z,19.52
2018-11-29T12:42:37.714Z,18.67
2018-11-29T12:45:14.764Z,18.32
2018-11-29T12:47:50.975Z,19.30
2018-11-29T12:50:27.805Z,18.05
2018-11-29T12:53:03.815Z,26.55
2018-11-29T12:55:42.288Z,19.25
2018-11-29T12:58:18.334Z,18.02
2018-11-29T13:00:54.325Z,19.45
2018-11-29T13:03:30.472Z,20.50
2018-11-29T13:06:07.071Z,19.75
2018-11-29T13:08:43.400Z,16.42
2018-11-29T13:11:19.396Z,19.85
2018-11-29T13:13:55.759Z,19.32
2018-11-29T13:16:32.023Z,17.98
2018-11-29T13:19:07.724Z,19.48
2018-11-29T13:21:43.503Z,18.10
2018-11-29T13:24:19.410Z,17.32
2018-11-29T13:26:55.471Z,17.52
2018-11-29T13:29:31.519Z,19.80
2018-11-29T13:32:07.581Z,19.80
2018-11-29T13:34:43.461Z,18.70
2018-11-29T13:37:20.730Z,17.75
2018-11-29T13:39:57.921Z,17.15
2018-11-29T13:42:35.453Z,17.42
2018-11-29T13:45:11.928Z,15.03
2018-11-29T13:47:49.144Z,17.35
2018-11-29T13:50:25.367Z,15.80
2018-11-29T13:53:01.554Z,18.75
2018-11-29T13:55:37.618Z,18.42
2018-11-29T13:58:13.548Z,16.85
2018-11-29T14:00:50.325Z,17.82
2018-11-29T14:03:26.064Z,17.20
2018-11-29T14:06:02.096Z,15.35
2018-11-29T14:08:37.985Z,15.80
2018-11-29T14:11:14.009Z,17.62
2018-11-29T14:13:50.360Z,16.23
2018-11-29T14:16:26.133Z,15.95
2018-11-29T14:19:02.220Z,18.45
2018-11-29T14:21:38.275Z,17.85
2018-11-29T14:24:14.404Z,14.75
2018-11-29T14:26:50.471Z,16.12
2018-11-29T14:29:26.490Z,17.85
2018-11-29T14:32:02.708Z,16.17
2018-11-29T14:34:38.715Z,18.20
2018-11-29T14:37:14.862Z,17.48
2018-11-29T14:39:51.163Z,17.00
2018-11-29T14:42:27.226Z,16.52
2018-11-29T14:45:03.494Z,18.32
2018-11-29T14:47:39.493Z,17.42
2018-11-29T14:50:21.822Z,16.52
2018-11-29T14:52:57.788Z,16.70
2018-11-29T14:55:33.697Z,16.62
2018-11-29T14:58:11.270Z,16.93
2018-11-29T15:00:47.260Z,17.95
2018-11-29T15:03:23.916Z,18.50
2018-11-29T15:05:59.874Z,18.45
2018-11-29T15:08:36.244Z,18.73
2018-11-29T15:11:12.190Z,16.50
2018-11-29T15:13:48.105Z,17.15
2018-11-29T15:16:24.310Z,17.55
2018-11-29T15:19:00.197Z,18.85
2018-11-29T15:21:36.348Z,15.70
2018-11-29T15:24:12.511Z,17.45
2018-11-29T15:26:48.666Z,15.72
2018-11-29T15:29:24.891Z,16.50
2018-11-29T15:32:00.962Z,15.18
2018-11-29T15:34:37.087Z,17.10
2018-11-29T15:37:13.357Z,17.50
2018-11-29T15:39:49.234Z,16.30
2018-11-29T15:42:25.303Z,16.48
2018-11-29T15:45:01.693Z,17.45
2018-11-29T15:47:37.703Z,17.55
2018-11-29T15:50:14.575Z,16.17
2018-11-29T15:52:50.672Z,14.65
2018-11-29T15:55:27.199Z,16.27
2018-11-29T15:58:03.283Z,15.10
2018-11-29T16:00:39.314Z,14.93
2018-11-29T16:03:15.330Z,16.48
2018-11-29T16:05:51.316Z,14.18
2018-11-29T16:08:27.235Z,14.73
2018-11-29T16:11:03.500Z,16.48
2018-11-29T16:13:39.336Z,15.55
2018-11-29T16:16:15.417Z,14.85
2018-11-29T16:18:51.660Z,14.40
2018-11-29T16:21:27.531Z,16.00
2018-11-29T16:24:03.992Z,14.53
2018-11-29T16:26:39.952Z,14.25
2018-11-29T16:29:16.146Z,14.25
2018-11-29T16:31:52.231Z,13.03
2018-11-29T16:34:28.467Z,13.08
2018-11-29T16:37:04.400Z,14.18
2018-11-29T16:39:40.584Z,12.85
2018-11-29T16:42:16.596Z,12.68
2018-11-29T16:44:52.644Z,13.25
2018-11-29T16:47:28.837Z,15.40
2018-11-29T16:50:05.388Z,13.50
2018-11-29T16:52:41.325Z,14.03
2018-11-29T16:55:17.357Z,13.48
2018-11-29T16:57:55.272Z,14.83
2018-11-29T17:00:31.184Z,12.33
2018-11-29T17:03:07.363Z,13.53
2018-11-29T17:05:43.423Z,12.95
2018-11-29T17:08:19.592Z,14.38
2018-11-29T17:10:55.728Z,13.35
2018-11-29T17:13:31.659Z,12.70
2018-11-29T17:16:07.945Z,12.60
2018-11-29T17:18:44.128Z,13.38
2018-11-29T17:21:20.087Z,12.70
2018-11-29T17:23:56.362Z,14.05
2018-11-29T17:26:32.382Z,13.90
2018-11-29T17:29:08.315Z,11.57
2018-11-29T17:31:44.188Z,14.03
2018-11-29T17:34:20.458Z,13.68
2018-11-29T17:36:56.428Z,13.40
2018-11-29T17:39:32.494Z,12.58
2018-11-29T17:42:08.795Z,13.43
2018-11-29T17:44:44.910Z,13.30
2018-11-29T17:47:21.139Z,12.93
2018-11-29T17:49:56.976Z,13.50
2018-11-29T17:52:32.937Z,12.60
2018-11-29T17:55:09.251Z,11.78
2018-11-29T17:57:45.394Z,12.80
2018-11-29T18:00:22.857Z,11.10
2018-11-29T18:03:00.166Z,14.07
2018-11-29T18:05:36.421Z,11.95
2018-11-29T18:08:12.431Z,12.75
2018-11-29T18:10:50.385Z,12.35
2018-11-29T18:13:32.073Z,12.30
2018-11-29T18:16:08.221Z,12.53
2018-11-29T18:18:44.154Z,11.85
2018-11-29T18:21:19.941Z,11.80
2018-11-29T18:23:56.001Z,11.55
2018-11-29T18:26:32.490Z,13.48
2018-11-29T18:29:08.486Z,15.48
2018-11-29T18:31:44.515Z,13.20
2018-11-29T18:34:20.554Z,12.78
2018-11-29T18:36:56.553Z,11.22
2018-11-29T18:39:32.675Z,13.75
2018-11-29T18:42:08.598Z,12.03
2018-11-29T18:44:44.781Z,11.73
2018-11-29T18:47:20.906Z,12.23
2018-11-29T18:49:56.541Z,12.58
2018-11-29T18:52:32.488Z,11.08
2018-11-29T18:55:08.741Z,12.73
2018-11-29T18:57:44.647Z,11.45
2018-11-29T19:00:29.735Z,14.20
2018-11-29T19:03:06.274Z,14.18
2018-11-29T19:05:42.503Z,12.13
2018-11-29T19:08:18.791Z,11.45
2018-11-29T19:10:54.895Z,15.85
2018-11-29T19:13:31.057Z,13.35
2018-11-29T19:16:07.384Z,12.47
2018-11-29T19:18:43.485Z,13.30
2018-11-29T19:21:19.887Z,13.43
2018-11-29T19:23:56.440Z,12.75
2018-11-29T19:26:32.779Z,13.45
2018-11-29T19:29:09.047Z,12.55
2018-11-29T19:31:45.222Z,12.00
2018-11-29T19:34:21.216Z,12.47
2018-11-29T19:36:58.170Z,12.82
2018-11-29T19:39:34.250Z,11.48
2018-11-29T19:42:10.475Z,12.63
2018-11-29T19:44:46.552Z,12.18
2018-11-29T19:47:22.684Z,13.32
2018-11-29T19:49:58.691Z,14.03
2018-11-29T19:52:34.534Z,11.43
2018-11-29T19:55:12.394Z,11.75
2018-11-29T19:57:48.347Z,13.05
2018-11-29T20:00:24.366Z,14.05
2018-11-29T20:03:00.524Z,11.28
2018-11-29T20:05:36.540Z,12.18
2018-11-29T20:08:12.810Z,12.43
2018-11-29T20:10:48.894Z,12.07
2018-11-29T20:13:24.774Z,10.80
2018-11-29T20:16:00.984Z,10.65
2018-11-29T20:18:37.030Z,10.70
2018-11-29T20:21:13.270Z,10.65
2018-11-29T20:23:49.531Z,11.05
2018-11-29T20:26:25.721Z,11.93
2018-11-29T20:29:01.846Z,10.95
2018-11-29T20:31:37.798Z,11.43
2018-11-29T20:34:14.086Z,11.95
2018-11-29T20:36:50.048Z,10.68
2018-11-29T20:39:25.967Z,11.57
2018-11-29T20:42:01.931Z,10.40
2018-11-29T20:44:38.196Z,11.35
2018-11-29T20:47:14.348Z,11.18
2018-11-29T20:49:50.239Z,10.13
2018-11-29T20:52:26.466Z,11.03
2018-11-29T20:55:02.672Z,10.68
2018-11-29T20:57:38.671Z,12.00
2018-11-29T21:00:15.923Z,9.10
2018-11-29T21:02:51.832Z,12.18
2018-11-29T21:05:28.051Z,10.13
2018-11-29T21:08:04.901Z,11.12
2018-11-29T21:10:40.841Z,10.78
2018-11-29T21:13:17.218Z,10.00
2018-11-29T21:15:53.183Z,9.70
2018-11-29T21:18:29.278Z,10.05
2018-11-29T21:21:05.331Z,11.05
2018-11-29T21:23:41.327Z,9.45
2018-11-29T21:26:17.727Z,9.83
2018-11-29T21:28:54.374Z,9.90
2018-11-29T21:31:30.783Z,9.40
2018-11-29T21:34:06.794Z,9.85
2018-11-29T21:36:42.854Z,9.13
2018-11-29T21:39:19.143Z,9.30
2018-11-29T21:41:54.927Z,9.78
2018-11-29T21:44:30.985Z,10.58
2018-11-29T21:47:06.960Z,9.78
2018-11-29T21:49:43.042Z,9.90
2018-11-29T21:52:19.055Z,10.32
2018-11-29T21:54:54.911Z,9.60
2018-11-29T21:57:31.275Z,10.25
2018-11-29T22:00:12.154Z,9.70
2018-11-29T22:02:52.493Z,9.05
2018-11-29T22:05:28.746Z,9.50
2018-11-29T22:08:04.855Z,9.40
2018-11-29T22:10:40.970Z,10.28
2018-11-29T22:13:18.050Z,9.63
2018-11-29T22:15:54.395Z,10.70
2018-11-29T22:18:30.451Z,9.08
2018-11-29T22:21:07.484Z,9.20
2018-11-29T22:23:44.233Z,9.20
2018-11-29T22:26:20.882Z,9.13
2018-11-29T22:29:00.685Z,8.70
2018-11-29T22:31:34.699Z,9.15
2018-11-29T22:34:11.018Z,9.28
2018-11-29T22:36:47.160Z,9.85
2018-11-29T22:39:23.228Z,8.85
2018-11-29T22:41:59.451Z,9.88
2018-11-29T22:44:35.638Z,8.35
2018-11-29T22:47:12.655Z,9.78
2018-11-29T22:49:49.455Z,8.60
2018-11-29T22:52:25.884Z,10.10
2018-11-29T22:55:02.414Z,9.80
2018-11-29T22:57:39.534Z,11.50
2018-11-29T23:00:19.365Z,10.75
2018-11-29T23:02:55.946Z,8.73
2018-11-29T23:05:33.013Z,9.70
2018-11-29T23:08:09.846Z,10.40
2018-11-29T23:10:46.833Z,8.70
2018-11-29T23:13:23.131Z,8.93
2018-11-29T23:15:59.083Z,10.43
2018-11-29T23:18:35.382Z,7.92
2018-11-29T23:21:11.984Z,9.00
2018-11-29T23:23:48.050Z,9.68
2018-11-29T23:26:24.405Z,9.05
2018-11-29T23:29:00.714Z,7.40
2018-11-29T23:31:37.651Z,8.65
2018-11-29T23:34:14.366Z,10.38
2018-11-29T23:36:51.343Z,8.93
2018-11-29T23:39:28.139Z,8.58
2018-11-29T23:42:05.186Z,8.50
2018-11-29T23:44:42.032Z,8.38
2018-11-29T23:47:18.654Z,9.40
2018-11-29T23:49:56.360Z,9.35
2018-11-29T23:52:33.045Z,8.30
2018-11-29T23:55:11.969Z,8.83
2018-11-29T23:57:48.131Z,8.20
